CYNL

METAR CYNL 081000Z AUTO 30009G15KT OVC010 M15/M18 A2967 RMK AO1 PRESRR SLP107
METAR
LOCATION
CYNL
DATE - TIME
081000Z
WIND
300 TRUE @ 9 KNOTS GUSTS 15 KNOTS
VISIBILITY
RUNWAY VISUAL RANGE
NOT REPORTED
WEATHER
CLOUDINESS
OVC010
TEMP / DEWPOINT
-15 ºC / -18 ºC
ALTIMETER
29.67 in. Hg
RECENT WEATHER
NOT REPORTED
WIND SHEAR
NOT REPORTED
REMARKS
RMK AO1 PRESRR SLP107
SEA LEVEL PRESSURE: hPa

CYNL

SPECI CYNL 080949Z AUTO 30010G17KT FEW004 OVC010 M15/M18 A2966 RMK AO1 PRESRR SLP104
SPECI
LOCATION
CYNL
DATE - TIME
080949Z
WIND
300 TRUE @ 10 KNOTS GUSTS 17 KNOTS
VISIBILITY
RUNWAY VISUAL RANGE
NOT REPORTED
WEATHER
CLOUDINESS
FEW004 OVC010
TEMP / DEWPOINT
-15 ºC / -18 ºC
ALTIMETER
29.66 in. Hg
RECENT WEATHER
NOT REPORTED
WIND SHEAR
NOT REPORTED
REMARKS
RMK AO1 PRESRR SLP104
SEA LEVEL PRESSURE: hPa

CYNL

SPECI CYNL 080909Z AUTO 29006KT SCT012 BKN014 OVC022 M15/M17 A2964 RMK AO1 PRESRR SLP098
SPECI
LOCATION
CYNL
DATE - TIME
080909Z
WIND
290 TRUE @ 6 KNOTS
VISIBILITY
RUNWAY VISUAL RANGE
NOT REPORTED
WEATHER
CLOUDINESS
SCT012 BKN014 OVC022
TEMP / DEWPOINT
-15 ºC / -17 ºC
ALTIMETER
29.64 in. Hg
RECENT WEATHER
NOT REPORTED
WIND SHEAR
NOT REPORTED
REMARKS
RMK AO1 PRESRR SLP098
SEA LEVEL PRESSURE: hPa

Your time UTC time
 
 
Weather data provided by AXYS Technologies Inc., www.axystechnologies.com
 
Station History